Susanville Airport

About
Name: Susanville Airport
Identifier:  SVE/KSVE
Local Time:  23. Aug 05:04
Location
Flights per Day
0 flights
Punctuality
-100% (0 flights per day delayed)
Delay Average: 9 minutes
Current Weather
 19 C (Humidity: 34%)
  3kt (5km/h / 3mph) from 250°
  16km (10 mi.)
 
 METAR KSVE 230455Z AUTO 25003KT 10SM CLR 19/03 A2996 RMK AO2

Current Flights

Departures
Number Departure To Airline
Arrivals
Number Arrival From Airline

Current Delays

Departures
N/A
Arrivals
N/A

Destinations

Top Destinations
Airport Flights
per week
Seats
per week
  Chico (CIC) 1 - 0 0
  Sacramento (MHR) 0 - 0 0
  Klamath Falls (LMT) 0 - 0 0
  Reno (RNO) 0 - 0 0

Airlines & Planes

Top Airlines
Airline Flights
per Day
Seats
per Day
Redding Aero Enterprises 0 -
  Nolinor Aviation 0 -
Reach Air Medical Services 0 -
Top Plane Types
Model Flights Seats
Cessna C402 0.2/day - 0
Beech B200 Super King Air 0.0/day - 0